x

Port Colborne (45142) Wave Buoy

10:00pm - Wed 16th Aug 2017 All times are CDT. -5 hours from GMT.

  • Sig Wave height 0.7ft
  • Peak Period 2s
  • Wind
    11mph, 13mph gusts
  • Sea Temp 75°f
  • Air Temp 72°f
  • Sea Pressure 1017.4mb
  • Port Colborne
  • Port Colborne

More Historic Weather Station data

Upgrade to MSW Pro to gain access to the past 30 days of data for over 8000 Wavebouys and Weather Stations around the globe.

Join

Comparision Forecast

View Surf forecast
   
Wed 08/16 10:00pm 0.7ft 2s 11 13 mph 1017.4mb 75f 72f
9:00pm 0.3ft 3s 11 13 mph 1017.3mb 75f 74f
8:00pm  -  3s 7 9 mph 1017.1mb 76f 74f
7:00pm 0.3ft 3s 4 4 mph 1016.8mb 77f 74f
6:00pm 0.3ft 3s  -  2 mph 1016.8mb 77f 77f
5:00pm 0.3ft 3s  -  0 mph 1017.1mb 78f 76f
4:00pm 0.3ft 3s  -  2 mph 1017.4mb 77f 76f
3:00pm 0.3ft 3s 2 4 mph 1017.6mb 77f 73f
2:00pm 0.3ft 3s 4 4 mph 1018.1mb 77f 72f
1:00pm 0.3ft 3s 4 7 mph 1018.3mb 77f 72f
12:00pm 0.3ft 3s 4 4 mph 1018.5mb 76f 71f
11:00am 0.3ft 3s  -  2 mph 1018.6mb 75f 71f
10:00am 0.3ft 4s 4 4 mph 1018.9mb 74f 69f
9:00am 0.3ft 3s 4 7 mph 1018.6mb 73f 68f
8:00am 0.3ft 4s 7 9 mph 1018.2mb 73f 68f
7:00am 0.7ft 3s 7 9 mph 1017.9mb 73f 68f
6:00am 0.7ft 4s 4 7 mph 1017.5mb 73f 68f
5:00am 0.7ft 2s 4 7 mph 1017.2mb 73f 68f
4:00am 0.7ft 2s 7 9 mph 1016.1mb 73f 69f
3:00am 1ft 2s 9 11 mph 1015.4mb 73f 69f
2:00am 1.3ft 3s 11 13 mph 1015.3mb 73f 70f
1:00am 1.3ft 3s 16 18 mph 1014.7mb 73f 70f
12:00am 1ft 2s 16 20 mph 1014.1mb 73f 71f
Tue 08/15 11:00pm 1ft 4s 13 13 mph 1014mb 73f 72f
10:00pm 0.7ft 4s 11 13 mph 1013.5mb 73f 74f
9:00pm 0.7ft 4s 7 7 mph 1013.1mb 73f 73f
8:00pm 1ft 4s 7 9 mph 1012.7mb 73f 73f
7:00pm 1ft 4s 7 9 mph 1012.1mb 74f 73f
6:00pm 1ft 4s 9 11 mph 1011.9mb 74f 74f
5:00pm 1ft 4s 11 16 mph 1011.6mb 74f 73f
4:00pm 1.3ft 4s 9 9 mph 1011.4mb 75f 74f
3:00pm 1.3ft 4s 2 4 mph 1011.7mb 75f 74f
2:00pm 1.6ft 4s 7 9 mph 1012mb 74f 73f
1:00pm 1.3ft 4s 13 16 mph 1011.6mb 73f 73f
12:00pm 1.3ft 3s 13 16 mph 1011.1mb 73f 73f
11:00am 1.3ft 3s 13 16 mph 1011.1mb 73f 73f
10:00am 1ft 3s 13 16 mph 1011.2mb 73f 73f
9:00am 0.7ft 3s 13 16 mph 1011.2mb 73f 72f
8:00am 0.7ft 3s 11 13 mph 1011mb 73f 71f
7:00am 0.7ft 2s 7 7 mph 1011.1mb 73f 70f
6:00am 0.7ft 3s 7 7 mph 1011.1mb 73f 69f
5:00am 0.7ft 2s 9 11 mph 1010.8mb 73f 69f
4:00am 0.7ft 3s 9 11 mph 1010.7mb 73f 72f
3:00am 0.7ft 2s 11 11 mph 1010.3mb 73f 70f
2:00am 0.3ft 2s 11 13 mph 1010.7mb 73f 71f
1:00am 0.3ft 2s 7 9 mph 1010.7mb 73f 71f
12:00am 0.3ft 2s 9 9 mph 1011mb 73f 72f
Mon 08/14 11:00pm 0.3ft 2s 9 11 mph 1011mb 73f 72f
10:00pm  -  4s 9 9 mph 1011mb 73f 73f
9:00pm  -  4s 7 7 mph 1011.1mb 73f 73f
8:00pm 0.3ft 2s 4 7 mph 1011.2mb 73f 74f
6:00pm 0.3ft 2s 7 9 mph 1011.1mb 74f 75f
5:00pm 0.3ft 2s 9 9 mph 1011.1mb 75f 75f
4:00pm  -  4s 9 9 mph 1011.7mb 76f 76f
3:00pm  -  4s 7 7 mph 1012.3mb 76f 75f
2:00pm 0.3ft 4s 4 7 mph 1012.9mb 76f 74f
1:00pm 0.3ft 4s 4 4 mph 1013.5mb 76f 73f
12:00pm 0.3ft 4s 2 4 mph 1014mb 75f 72f
11:00am 0.3ft 4s 2 4 mph 1014.8mb 74f 71f
10:00am 0.3ft 4s 2 4 mph 1015.3mb 74f 70f
9:00am 0.7ft 3s  -  2 mph 1015.4mb 73f 70f
8:00am 0.7ft 2s 2 4 mph 1015.8mb 72f 68f
7:00am 0.7ft 2s 11 13 mph 1015.6mb 72f 67f
6:00am 0.3ft 2s 9 11 mph 1016mb 72f 67f
5:00am 0.3ft 4s 7 9 mph 1016.3mb 72f 67f
4:00am 0.3ft 2s 7 9 mph 1016.3mb 72f 68f
3:00am 0.7ft 4s 7 9 mph 1016.5mb 72f 68f
2:00am 0.7ft 2s 7 7 mph 1016.4mb 72f 69f
1:00am 0.3ft 3s 7 9 mph 1016.6mb 72f 68f
12:00am 0.3ft 4s 4 7 mph 1016.6mb 72f 70f
Sun 08/13 11:00pm 0.7ft 4s 7 9 mph 1016.8mb 72f 71f
10:00pm 0.7ft 4s 4 7 mph 1016.9mb 72f 71f
9:00pm 0.7ft 3s 4 7 mph 1016.9mb 73f 71f
8:00pm 0.7ft 3s 7 7 mph 1016.7mb 73f 71f
7:00pm 0.7ft 3s 9 11 mph 1016.7mb 73f 71f
6:00pm 0.7ft 3s 9 9 mph 1016.6mb 73f 72f
5:00pm 0.7ft 3s 9 11 mph 1016.8mb 73f 72f
4:00pm 0.7ft 2s 9 11 mph 1017.2mb 73f 72f
3:00pm 0.7ft 2s 11 13 mph 1017.6mb 73f 71f
2:00pm 0.7ft 4s 9 11 mph 1017.5mb 74f 71f
1:00pm 0.7ft 4s 9 9 mph 1017.3mb 73f 70f
12:00pm 0.7ft 4s 9 11 mph 1017.4mb 73f 70f
11:00am 1ft 4s 9 9 mph 1017.8mb 73f 69f
10:00am 1ft 4s 4 7 mph 1018mb 73f 68f
9:00am 1ft 5s 2 4 mph 1017.7mb 73f 69f
8:00am 1ft 5s 2 4 mph 1017mb 72f 67f
7:00am 1ft 5s 4 7 mph 1016.7mb 71f 67f
6:00am 1.3ft 5s 7 9 mph 1016.4mb 71f 67f
5:00am 1.3ft 5s 9 11 mph 1015.8mb 71f 66f